sensor_id;sensor_type;location;lat;lon;timestamp;temperature;humidity
45765;DHT22;31474;45.332;10.230;2023-11-21T00:02:13;11.30;99.90
45765;DHT22;31474;45.332;10.230;2023-11-21T00:04:39;11.30;99.90
45765;DHT22;31474;45.332;10.230;2023-11-21T00:07:05;11.20;99.90
45765;DHT22;31474;45.332;10.230;2023-11-21T00:09:32;11.20;99.90
45765;DHT22;31474;45.332;10.230;2023-11-21T00:11:58;11.20;99.90
45765;DHT22;31474;45.332;10.230;2023-11-21T00:14:25;11.20;99.90
45765;DHT22;31474;45.332;10.230;2023-11-21T00:16:50;11.20;99.90
45765;DHT22;31474;45.332;10.230;2023-11-21T00:19:16;11.20;99.90
45765;DHT22;31474;45.332;10.230;2023-11-21T00:21:42;11.20;99.90
45765;DHT22;31474;45.332;10.230;2023-11-21T00:24:12;11.20;99.90
45765;DHT22;31474;45.332;10.230;2023-11-21T00:26:39;11.20;99.90
45765;DHT22;31474;45.332;10.230;2023-11-21T00:29:05;11.20;99.90
45765;DHT22;31474;45.332;10.230;2023-11-21T00:31:34;11.20;99.90
45765;DHT22;31474;45.332;10.230;2023-11-21T00:34:02;11.20;99.90
45765;DHT22;31474;45.332;10.230;2023-11-21T00:36:31;11.20;99.90
45765;DHT22;31474;45.332;10.230;2023-11-21T00:38:57;11.20;99.90
45765;DHT22;31474;45.332;10.230;2023-11-21T00:41:23;11.20;99.90
45765;DHT22;31474;45.332;10.230;2023-11-21T00:43:48;11.20;99.90
45765;DHT22;31474;45.332;10.230;2023-11-21T00:46:14;11.20;99.90
45765;DHT22;31474;45.332;10.230;2023-11-21T00:48:40;11.20;99.90
45765;DHT22;31474;45.332;10.230;2023-11-21T00:51:06;11.20;99.90
45765;DHT22;31474;45.332;10.230;2023-11-21T00:53:32;11.20;99.90
45765;DHT22;31474;45.332;10.230;2023-11-21T00:55:57;11.20;99.90
45765;DHT22;31474;45.332;10.230;2023-11-21T00:58:24;11.20;99.90
45765;DHT22;31474;45.332;10.230;2023-11-21T01:00:50;11.20;99.90
45765;DHT22;31474;45.332;10.230;2023-11-21T01:03:15;11.20;99.90
45765;DHT22;31474;45.332;10.230;2023-11-21T01:05:41;11.20;99.90
45765;DHT22;31474;45.332;10.230;2023-11-21T01:08:07;11.20;99.90
45765;DHT22;31474;45.332;10.230;2023-11-21T01:10:32;11.30;99.90
45765;DHT22;31474;45.332;10.230;2023-11-21T01:12:59;11.30;99.90
45765;DHT22;31474;45.332;10.230;2023-11-21T01:15:25;11.40;99.90
45765;DHT22;31474;45.332;10.230;2023-11-21T01:17:51;11.30;99.90
45765;DHT22;31474;45.332;10.230;2023-11-21T01:20:18;11.40;99.90
45765;DHT22;31474;45.332;10.230;2023-11-21T01:22:43;11.40;99.90
45765;DHT22;31474;45.332;10.230;2023-11-21T01:25:10;11.40;99.90
45765;DHT22;31474;45.332;10.230;2023-11-21T01:27:36;11.40;99.90
45765;DHT22;31474;45.332;10.230;2023-11-21T01:30:03;11.40;99.90
45765;DHT22;31474;45.332;10.230;2023-11-21T01:32:29;11.40;99.90
45765;DHT22;31474;45.332;10.230;2023-11-21T01:34:54;11.40;99.90
45765;DHT22;31474;45.332;10.230;2023-11-21T01:37:23;11.40;99.90
45765;DHT22;31474;45.332;10.230;2023-11-21T01:39:49;11.40;99.90
45765;DHT22;31474;45.332;10.230;2023-11-21T01:42:15;11.40;99.90
45765;DHT22;31474;45.332;10.230;2023-11-21T01:44:40;11.50;99.90
45765;DHT22;31474;45.332;10.230;2023-11-21T01:47:07;11.50;99.90
45765;DHT22;31474;45.332;10.230;2023-11-21T01:49:33;11.50;99.90
45765;DHT22;31474;45.332;10.230;2023-11-21T01:52:00;11.50;99.90
45765;DHT22;31474;45.332;10.230;2023-11-21T01:54:26;11.50;99.90
45765;DHT22;31474;45.332;10.230;2023-11-21T01:56:52;11.50;99.90
45765;DHT22;31474;45.332;10.230;2023-11-21T01:59:20;11.50;99.90
45765;DHT22;31474;45.332;10.230;2023-11-21T02:01:49;11.50;99.90
45765;DHT22;31474;45.332;10.230;2023-11-21T02:04:15;11.50;99.90
45765;DHT22;31474;45.332;10.230;2023-11-21T02:06:41;11.60;99.90
45765;DHT22;31474;45.332;10.230;2023-11-21T02:09:07;11.50;99.90
45765;DHT22;31474;45.332;10.230;2023-11-21T02:11:34;11.50;99.90
45765;DHT22;31474;45.332;10.230;2023-11-21T02:14:00;11.50;99.90
45765;DHT22;31474;45.332;10.230;2023-11-21T02:16:26;11.50;99.90
45765;DHT22;31474;45.332;10.230;2023-11-21T02:18:53;11.60;99.90
45765;DHT22;31474;45.332;10.230;2023-11-21T02:21:18;11.50;99.90
45765;DHT22;31474;45.332;10.230;2023-11-21T02:23:44;11.60;99.90
45765;DHT22;31474;45.332;10.230;2023-11-21T02:26:12;11.60;99.90
45765;DHT22;31474;45.332;10.230;2023-11-21T02:28:39;11.50;99.90
45765;DHT22;31474;45.332;10.230;2023-11-21T02:31:05;11.60;99.90
45765;DHT22;31474;45.332;10.230;2023-11-21T02:33:31;11.50;99.90
45765;DHT22;31474;45.332;10.230;2023-11-21T02:36:00;11.60;99.90
45765;DHT22;31474;45.332;10.230;2023-11-21T02:38:25;11.50;99.90
45765;DHT22;31474;45.332;10.230;2023-11-21T02:40:51;11.50;99.90
45765;DHT22;31474;45.332;10.230;2023-11-21T02:43:17;11.60;99.90
45765;DHT22;31474;45.332;10.230;2023-11-21T02:45:43;11.60;99.90
45765;DHT22;31474;45.332;10.230;2023-11-21T02:48:08;11.60;99.90
45765;DHT22;31474;45.332;10.230;2023-11-21T02:50:34;11.50;99.90
45765;DHT22;31474;45.332;10.230;2023-11-21T02:53:00;11.60;99.90
45765;DHT22;31474;45.332;10.230;2023-11-21T02:55:27;11.50;99.90
45765;DHT22;31474;45.332;10.230;2023-11-21T02:57:54;11.50;99.90
45765;DHT22;31474;45.332;10.230;2023-11-21T03:00:21;11.50;99.90
45765;DHT22;31474;45.332;10.230;2023-11-21T03:02:49;11.50;99.90
45765;DHT22;31474;45.332;10.230;2023-11-21T03:05:15;11.50;99.90
45765;DHT22;31474;45.332;10.230;2023-11-21T03:07:41;11.50;99.90
45765;DHT22;31474;45.332;10.230;2023-11-21T03:10:08;11.50;99.90
45765;DHT22;31474;45.332;10.230;2023-11-21T03:12:37;11.50;99.90
45765;DHT22;31474;45.332;10.230;2023-11-21T03:15:04;11.50;99.90
45765;DHT22;31474;45.332;10.230;2023-11-21T03:17:31;11.50;99.90
45765;DHT22;31474;45.332;10.230;2023-11-21T03:19:56;11.50;99.90
45765;DHT22;31474;45.332;10.230;2023-11-21T03:22:22;11.50;99.90
45765;DHT22;31474;45.332;10.230;2023-11-21T03:24:48;11.50;99.90
45765;DHT22;31474;45.332;10.230;2023-11-21T03:27:14;11.50;99.90
45765;DHT22;31474;45.332;10.230;2023-11-21T03:29:40;11.50;99.90
45765;DHT22;31474;45.332;10.230;2023-11-21T03:32:05;11.50;99.90
45765;DHT22;31474;45.332;10.230;2023-11-21T03:34:32;11.50;99.90
45765;DHT22;31474;45.332;10.230;2023-11-21T03:36:58;11.50;99.90
45765;DHT22;31474;45.332;10.230;2023-11-21T03:39:24;11.50;99.90
45765;DHT22;31474;45.332;10.230;2023-11-21T03:41:51;11.50;99.90
45765;DHT22;31474;45.332;10.230;2023-11-21T03:44:17;11.50;99.90
45765;DHT22;31474;45.332;10.230;2023-11-21T03:46:43;11.50;99.90
45765;DHT22;31474;45.332;10.230;2023-11-21T03:49:09;11.50;99.90
45765;DHT22;31474;45.332;10.230;2023-11-21T03:51:36;11.50;99.90
45765;DHT22;31474;45.332;10.230;2023-11-21T03:54:02;11.50;99.90
45765;DHT22;31474;45.332;10.230;2023-11-21T03:56:28;11.50;99.90
45765;DHT22;31474;45.332;10.230;2023-11-21T03:58:54;11.50;99.90
45765;DHT22;31474;45.332;10.230;2023-11-21T04:01:22;11.50;99.90
45765;DHT22;31474;45.332;10.230;2023-11-21T04:03:49;11.50;99.90
45765;DHT22;31474;45.332;10.230;2023-11-21T04:06:15;11.50;99.90
45765;DHT22;31474;45.332;10.230;2023-11-21T04:08:41;11.50;99.90
45765;DHT22;31474;45.332;10.230;2023-11-21T04:11:06;11.50;99.90
45765;DHT22;31474;45.332;10.230;2023-11-21T04:13:32;11.40;99.90
45765;DHT22;31474;45.332;10.230;2023-11-21T04:15:57;11.40;99.90
45765;DHT22;31474;45.332;10.230;2023-11-21T04:18:23;11.40;99.90
45765;DHT22;31474;45.332;10.230;2023-11-21T04:20:49;11.40;99.90
45765;DHT22;31474;45.332;10.230;2023-11-21T04:23:15;11.50;99.90
45765;DHT22;31474;45.332;10.230;2023-11-21T04:25:41;11.40;99.90
45765;DHT22;31474;45.332;10.230;2023-11-21T04:28:07;11.40;99.90
45765;DHT22;31474;45.332;10.230;2023-11-21T04:30:32;11.40;99.90
45765;DHT22;31474;45.332;10.230;2023-11-21T04:32:58;11.50;99.90
45765;DHT22;31474;45.332;10.230;2023-11-21T04:35:24;11.50;99.90
45765;DHT22;31474;45.332;10.230;2023-11-21T04:37:49;11.40;99.90
45765;DHT22;31474;45.332;10.230;2023-11-21T04:40:16;11.40;99.90
45765;DHT22;31474;45.332;10.230;2023-11-21T04:42:42;11.40;99.90
45765;DHT22;31474;45.332;10.230;2023-11-21T04:45:08;11.40;99.90
45765;DHT22;31474;45.332;10.230;2023-11-21T04:47:35;11.30;99.90
45765;DHT22;31474;45.332;10.230;2023-11-21T04:50:02;11.30;99.90
45765;DHT22;31474;45.332;10.230;2023-11-21T04:52:29;11.30;99.90
45765;DHT22;31474;45.332;10.230;2023-11-21T04:54:54;11.30;99.90
45765;DHT22;31474;45.332;10.230;2023-11-21T04:57:21;11.30;99.90
45765;DHT22;31474;45.332;10.230;2023-11-21T04:59:48;11.20;99.90
45765;DHT22;31474;45.332;10.230;2023-11-21T05:02:14;11.20;99.90
45765;DHT22;31474;45.332;10.230;2023-11-21T05:04:39;11.20;99.90
45765;DHT22;31474;45.332;10.230;2023-11-21T05:07:05;11.20;99.90
45765;DHT22;31474;45.332;10.230;2023-11-21T05:09:31;11.20;99.90
45765;DHT22;31474;45.332;10.230;2023-11-21T05:11:58;11.20;99.90
45765;DHT22;31474;45.332;10.230;2023-11-21T05:14:23;11.20;99.90
45765;DHT22;31474;45.332;10.230;2023-11-21T05:16:49;11.20;99.90
45765;DHT22;31474;45.332;10.230;2023-11-21T05:19:16;11.10;99.90
45765;DHT22;31474;45.332;10.230;2023-11-21T05:21:42;11.10;99.90
45765;DHT22;31474;45.332;10.230;2023-11-21T05:24:07;11.10;99.90
45765;DHT22;31474;45.332;10.230;2023-11-21T05:26:33;11.10;99.90
45765;DHT22;31474;45.332;10.230;2023-11-21T05:28:59;11.10;99.90
45765;DHT22;31474;45.332;10.230;2023-11-21T05:31:24;11.10;99.90
45765;DHT22;31474;45.332;10.230;2023-11-21T05:33:50;11.10;99.90
45765;DHT22;31474;45.332;10.230;2023-11-21T05:36:16;11.10;99.90
45765;DHT22;31474;45.332;10.230;2023-11-21T05:38:41;11.10;99.90
45765;DHT22;31474;45.332;10.230;2023-11-21T05:41:07;11.10;99.90
45765;DHT22;31474;45.332;10.230;2023-11-21T05:43:36;11.10;99.90
45765;DHT22;31474;45.332;10.230;2023-11-21T05:46:02;11.10;99.90
45765;DHT22;31474;45.332;10.230;2023-11-21T05:48:27;11.10;99.90
45765;DHT22;31474;45.332;10.230;2023-11-21T05:50:53;11.10;99.90
45765;DHT22;31474;45.332;10.230;2023-11-21T05:53:19;11.10;99.90
45765;DHT22;31474;45.332;10.230;2023-11-21T05:55:44;11.10;99.90
45765;DHT22;31474;45.332;10.230;2023-11-21T05:58:10;11.10;99.90
45765;DHT22;31474;45.332;10.230;2023-11-21T06:00:36;11.00;99.90
45765;DHT22;31474;45.332;10.230;2023-11-21T06:03:02;11.00;99.90
45765;DHT22;31474;45.332;10.230;2023-11-21T06:05:28;11.00;99.90
45765;DHT22;31474;45.332;10.230;2023-11-21T06:07:55;11.00;99.90
45765;DHT22;31474;45.332;10.230;2023-11-21T06:10:24;11.00;99.90
45765;DHT22;31474;45.332;10.230;2023-11-21T06:12:49;11.00;99.90
45765;DHT22;31474;45.332;10.230;2023-11-21T06:15:15;11.00;99.90
45765;DHT22;31474;45.332;10.230;2023-11-21T06:17:44;10.90;99.90
45765;DHT22;31474;45.332;10.230;2023-11-21T06:20:15;10.90;99.90
45765;DHT22;31474;45.332;10.230;2023-11-21T06:22:42;10.90;99.90
45765;DHT22;31474;45.332;10.230;2023-11-21T06:25:08;11.00;99.90
45765;DHT22;31474;45.332;10.230;2023-11-21T06:27:39;10.90;99.90
45765;DHT22;31474;45.332;10.230;2023-11-21T06:30:06;10.90;99.90
45765;DHT22;31474;45.332;10.230;2023-11-21T06:32:32;10.90;99.90
45765;DHT22;31474;45.332;10.230;2023-11-21T06:34:58;10.90;99.90
45765;DHT22;31474;45.332;10.230;2023-11-21T06:37:26;10.90;99.90
45765;DHT22;31474;45.332;10.230;2023-11-21T06:39:52;10.90;99.90
45765;DHT22;31474;45.332;10.230;2023-11-21T06:42:18;10.90;99.90
45765;DHT22;31474;45.332;10.230;2023-11-21T06:44:48;10.90;99.90
45765;DHT22;31474;45.332;10.230;2023-11-21T06:47:23;10.90;99.90
45765;DHT22;31474;45.332;10.230;2023-11-21T06:49:52;10.90;99.90
45765;DHT22;31474;45.332;10.230;2023-11-21T06:52:18;11.00;99.90
45765;DHT22;31474;45.332;10.230;2023-11-21T06:54:44;10.90;99.90
45765;DHT22;31474;45.332;10.230;2023-11-21T06:57:11;10.90;99.90
45765;DHT22;31474;45.332;10.230;2023-11-21T06:59:36;11.00;99.90
45765;DHT22;31474;45.332;10.230;2023-11-21T07:02:02;11.00;99.90
45765;DHT22;31474;45.332;10.230;2023-11-21T07:04:28;11.10;99.90
45765;DHT22;31474;45.332;10.230;2023-11-21T07:06:54;11.20;99.90
45765;DHT22;31474;45.332;10.230;2023-11-21T07:09:20;11.20;99.90
45765;DHT22;31474;45.332;10.230;2023-11-21T07:11:51;11.20;99.90
45765;DHT22;31474;45.332;10.230;2023-11-21T07:14:17;11.30;99.90
45765;DHT22;31474;45.332;10.230;2023-11-21T07:16:45;11.30;99.90
45765;DHT22;31474;45.332;10.230;2023-11-21T07:19:11;11.30;99.90
45765;DHT22;31474;45.332;10.230;2023-11-21T07:21:38;11.30;99.90
45765;DHT22;31474;45.332;10.230;2023-11-21T07:24:05;11.30;99.90
45765;DHT22;31474;45.332;10.230;2023-11-21T07:26:32;11.30;99.90
45765;DHT22;31474;45.332;10.230;2023-11-21T07:29:02;11.30;99.90
45765;DHT22;31474;45.332;10.230;2023-11-21T07:31:28;11.40;99.90
45765;DHT22;31474;45.332;10.230;2023-11-21T07:33:54;11.40;99.90
45765;DHT22;31474;45.332;10.230;2023-11-21T07:36:23;11.40;99.90
45765;DHT22;31474;45.332;10.230;2023-11-21T07:38:49;11.40;99.90
45765;DHT22;31474;45.332;10.230;2023-11-21T07:41:15;11.50;99.90
45765;DHT22;31474;45.332;10.230;2023-11-21T07:43:42;11.60;99.90
45765;DHT22;31474;45.332;10.230;2023-11-21T07:46:08;11.70;99.90
45765;DHT22;31474;45.332;10.230;2023-11-21T07:48:34;11.70;99.90
45765;DHT22;31474;45.332;10.230;2023-11-21T07:51:01;11.80;99.90
45765;DHT22;31474;45.332;10.230;2023-11-21T07:53:28;11.80;99.90
45765;DHT22;31474;45.332;10.230;2023-11-21T07:58:30;11.80;99.90
45765;DHT22;31474;45.332;10.230;2023-11-21T08:00:59;11.80;99.90
45765;DHT22;31474;45.332;10.230;2023-11-21T08:03:24;11.90;99.90
45765;DHT22;31474;45.332;10.230;2023-11-21T08:05:52;11.90;99.90
45765;DHT22;31474;45.332;10.230;2023-11-21T08:08:18;12.00;99.90
45765;DHT22;31474;45.332;10.230;2023-11-21T08:10:44;11.90;99.90
45765;DHT22;31474;45.332;10.230;2023-11-21T08:13:13;11.90;99.90
45765;DHT22;31474;45.332;10.230;2023-11-21T08:15:41;11.90;99.90
45765;DHT22;31474;45.332;10.230;2023-11-21T08:18:11;11.90;99.90
45765;DHT22;31474;45.332;10.230;2023-11-21T08:20:38;11.90;99.90
45765;DHT22;31474;45.332;10.230;2023-11-21T08:23:05;12.00;99.90
45765;DHT22;31474;45.332;10.230;2023-11-21T08:25:34;12.10;99.90
45765;DHT22;31474;45.332;10.230;2023-11-21T08:28:00;12.10;99.90
45765;DHT22;31474;45.332;10.230;2023-11-21T08:30:27;12.10;99.90
45765;DHT22;31474;45.332;10.230;2023-11-21T08:32:55;12.10;99.90
45765;DHT22;31474;45.332;10.230;2023-11-21T08:35:24;12.20;99.90
45765;DHT22;31474;45.332;10.230;2023-11-21T08:37:51;12.30;99.90
45765;DHT22;31474;45.332;10.230;2023-11-21T08:40:19;12.30;99.90
45765;DHT22;31474;45.332;10.230;2023-11-21T08:42:45;12.30;99.90
45765;DHT22;31474;45.332;10.230;2023-11-21T08:45:11;12.30;99.90
45765;DHT22;31474;45.332;10.230;2023-11-21T08:47:39;12.30;99.90
45765;DHT22;31474;45.332;10.230;2023-11-21T08:50:06;12.40;99.90
45765;DHT22;31474;45.332;10.230;2023-11-21T08:52:33;12.40;99.90
45765;DHT22;31474;45.332;10.230;2023-11-21T08:54:59;12.40;99.90
45765;DHT22;31474;45.332;10.230;2023-11-21T08:57:28;12.40;99.90
45765;DHT22;31474;45.332;10.230;2023-11-21T08:59:54;12.50;99.90
45765;DHT22;31474;45.332;10.230;2023-11-21T09:02:26;12.50;99.90
45765;DHT22;31474;45.332;10.230;2023-11-21T09:04:52;12.50;99.90
45765;DHT22;31474;45.332;10.230;2023-11-21T09:07:21;12.60;99.90
45765;DHT22;31474;45.332;10.230;2023-11-21T09:09:47;12.70;99.90
45765;DHT22;31474;45.332;10.230;2023-11-21T09:12:13;12.70;99.90
45765;DHT22;31474;45.332;10.230;2023-11-21T09:14:39;12.70;99.90
45765;DHT22;31474;45.332;10.230;2023-11-21T09:17:05;12.70;99.90
45765;DHT22;31474;45.332;10.230;2023-11-21T09:19:37;12.80;99.90
45765;DHT22;31474;45.332;10.230;2023-11-21T09:22:03;12.80;99.90
45765;DHT22;31474;45.332;10.230;2023-11-21T09:24:30;12.90;99.90
45765;DHT22;31474;45.332;10.230;2023-11-21T09:26:56;12.90;99.90
45765;DHT22;31474;45.332;10.230;2023-11-21T09:29:22;13.00;99.90
45765;DHT22;31474;45.332;10.230;2023-11-21T09:31:48;13.10;99.90
45765;DHT22;31474;45.332;10.230;2023-11-21T09:34:15;13.30;99.90
45765;DHT22;31474;45.332;10.230;2023-11-21T09:36:41;13.50;99.90
45765;DHT22;31474;45.332;10.230;2023-11-21T09:39:06;13.60;99.90
45765;DHT22;31474;45.332;10.230;2023-11-21T09:41:43;13.80;99.90
45765;DHT22;31474;45.332;10.230;2023-11-21T09:44:13;13.90;99.90
45765;DHT22;31474;45.332;10.230;2023-11-21T09:46:42;14.00;99.90
45765;DHT22;31474;45.332;10.230;2023-11-21T09:49:11;14.00;99.90
45765;DHT22;31474;45.332;10.230;2023-11-21T09:51:43;14.00;99.90
45765;DHT22;31474;45.332;10.230;2023-11-21T09:54:10;14.10;99.90
45765;DHT22;31474;45.332;10.230;2023-11-21T09:56:38;14.10;99.90
45765;DHT22;31474;45.332;10.230;2023-11-21T09:59:04;14.10;99.90
45765;DHT22;31474;45.332;10.230;2023-11-21T10:01:33;14.10;99.90
45765;DHT22;31474;45.332;10.230;2023-11-21T10:04:01;14.20;99.90
45765;DHT22;31474;45.332;10.230;2023-11-21T10:06:28;14.20;99.90
45765;DHT22;31474;45.332;10.230;2023-11-21T10:08:56;14.20;99.90
45765;DHT22;31474;45.332;10.230;2023-11-21T10:11:27;14.20;99.90
45765;DHT22;31474;45.332;10.230;2023-11-21T10:13:54;14.10;99.90
45765;DHT22;31474;45.332;10.230;2023-11-21T10:16:24;14.10;99.90
45765;DHT22;31474;45.332;10.230;2023-11-21T10:18:52;14.10;99.90
45765;DHT22;31474;45.332;10.230;2023-11-21T10:21:21;14.10;99.90
45765;DHT22;31474;45.332;10.230;2023-11-21T10:23:47;14.20;99.90
45765;DHT22;31474;45.332;10.230;2023-11-21T10:26:13;14.10;99.90
45765;DHT22;31474;45.332;10.230;2023-11-21T10:28:54;14.00;99.90
45765;DHT22;31474;45.332;10.230;2023-11-21T10:31:21;13.90;99.90
45765;DHT22;31474;45.332;10.230;2023-11-21T10:33:46;13.90;99.90
45765;DHT22;31474;45.332;10.230;2023-11-21T10:36:12;13.90;99.90
45765;DHT22;31474;45.332;10.230;2023-11-21T10:38:42;13.90;99.90
45765;DHT22;31474;45.332;10.230;2023-11-21T10:41:11;13.90;99.90
45765;DHT22;31474;45.332;10.230;2023-11-21T10:43:40;13.90;99.90
45765;DHT22;31474;45.332;10.230;2023-11-21T10:46:07;13.80;99.90
45765;DHT22;31474;45.332;10.230;2023-11-21T10:48:33;13.80;99.90
45765;DHT22;31474;45.332;10.230;2023-11-21T10:51:06;13.80;99.90
45765;DHT22;31474;45.332;10.230;2023-11-21T10:53:33;13.80;99.90
45765;DHT22;31474;45.332;10.230;2023-11-21T10:56:06;13.80;99.90
45765;DHT22;31474;45.332;10.230;2023-11-21T10:58:35;13.80;99.90
45765;DHT22;31474;45.332;10.230;2023-11-21T11:01:04;13.80;99.90
45765;DHT22;31474;45.332;10.230;2023-11-21T11:03:32;13.80;99.90
45765;DHT22;31474;45.332;10.230;2023-11-21T11:05:59;13.80;99.90
45765;DHT22;31474;45.332;10.230;2023-11-21T11:08:26;13.80;99.90
45765;DHT22;31474;45.332;10.230;2023-11-21T11:10:53;13.70;99.90
45765;DHT22;31474;45.332;10.230;2023-11-21T11:13:19;13.70;99.90
45765;DHT22;31474;45.332;10.230;2023-11-21T11:15:48;13.70;99.90
45765;DHT22;31474;45.332;10.230;2023-11-21T11:18:14;13.70;99.90
45765;DHT22;31474;45.332;10.230;2023-11-21T11:20:43;13.70;99.90
45765;DHT22;31474;45.332;10.230;2023-11-21T11:24:05;13.70;99.90
45765;DHT22;31474;45.332;10.230;2023-11-21T11:29:14;13.80;99.90
45765;DHT22;31474;45.332;10.230;2023-11-21T11:34:32;13.90;99.90
45765;DHT22;31474;45.332;10.230;2023-11-21T11:37:03;14.00;99.90
45765;DHT22;31474;45.332;10.230;2023-11-21T11:42:04;14.00;99.90
45765;DHT22;31474;45.332;10.230;2023-11-21T11:44:59;14.10;99.90
45765;DHT22;31474;45.332;10.230;2023-11-21T11:47:31;14.20;99.90
45765;DHT22;31474;45.332;10.230;2023-11-21T11:50:10;14.30;99.90
45765;DHT22;31474;45.332;10.230;2023-11-21T11:52:49;14.30;99.90
45765;DHT22;31474;45.332;10.230;2023-11-21T11:55:22;14.30;99.90
45765;DHT22;31474;45.332;10.230;2023-11-21T11:57:50;14.30;99.90
45765;DHT22;31474;45.332;10.230;2023-11-21T12:02:49;14.30;99.90
45765;DHT22;31474;45.332;10.230;2023-11-21T12:05:20;14.30;99.90
45765;DHT22;31474;45.332;10.230;2023-11-21T12:10:20;14.20;99.90
45765;DHT22;31474;45.332;10.230;2023-11-21T12:12:54;14.10;99.90
45765;DHT22;31474;45.332;10.230;2023-11-21T12:15:20;14.00;99.90
45765;DHT22;31474;45.332;10.230;2023-11-21T12:17:47;13.90;99.90
45765;DHT22;31474;45.332;10.230;2023-11-21T12:20:15;13.90;99.90
45765;DHT22;31474;45.332;10.230;2023-11-21T12:22:50;13.90;99.90
45765;DHT22;31474;45.332;10.230;2023-11-21T12:25:18;13.90;99.90
45765;DHT22;31474;45.332;10.230;2023-11-21T12:27:49;13.90;99.90
45765;DHT22;31474;45.332;10.230;2023-11-21T12:30:16;13.80;99.90
45765;DHT22;31474;45.332;10.230;2023-11-21T12:32:44;13.80;99.90
45765;DHT22;31474;45.332;10.230;2023-11-21T12:35:11;13.80;99.90
45765;DHT22;31474;45.332;10.230;2023-11-21T12:37:41;13.80;99.90
45765;DHT22;31474;45.332;10.230;2023-11-21T12:40:10;13.80;99.90
45765;DHT22;31474;45.332;10.230;2023-11-21T12:42:41;13.80;99.90
45765;DHT22;31474;45.332;10.230;2023-11-21T12:47:56;13.80;99.90
45765;DHT22;31474;45.332;10.230;2023-11-21T12:50:31;13.80;99.90
45765;DHT22;31474;45.332;10.230;2023-11-21T12:53:06;13.80;99.90
45765;DHT22;31474;45.332;10.230;2023-11-21T12:55:34;13.70;99.90
45765;DHT22;31474;45.332;10.230;2023-11-21T12:58:07;13.70;99.90
45765;DHT22;31474;45.332;10.230;2023-11-21T13:00:42;13.70;99.90
45765;DHT22;31474;45.332;10.230;2023-11-21T13:03:09;13.70;99.90
45765;DHT22;31474;45.332;10.230;2023-11-21T13:05:39;13.70;99.90
45765;DHT22;31474;45.332;10.230;2023-11-21T13:08:09;13.70;99.90
45765;DHT22;31474;45.332;10.230;2023-11-21T13:10:41;13.70;99.90
45765;DHT22;31474;45.332;10.230;2023-11-21T13:13:10;13.70;99.90
45765;DHT22;31474;45.332;10.230;2023-11-21T13:15:40;13.60;99.90
45765;DHT22;31474;45.332;10.230;2023-11-21T13:18:08;13.60;99.90
45765;DHT22;31474;45.332;10.230;2023-11-21T13:20:36;13.60;99.90
45765;DHT22;31474;45.332;10.230;2023-11-21T13:23:07;13.60;99.90
45765;DHT22;31474;45.332;10.230;2023-11-21T13:25:33;13.60;99.90
45765;DHT22;31474;45.332;10.230;2023-11-21T13:28:00;13.70;99.90
45765;DHT22;31474;45.332;10.230;2023-11-21T13:30:28;13.70;99.90
45765;DHT22;31474;45.332;10.230;2023-11-21T13:32:59;13.70;99.90
45765;DHT22;31474;45.332;10.230;2023-11-21T13:35:35;13.80;99.90
45765;DHT22;31474;45.332;10.230;2023-11-21T13:38:11;13.80;99.90
45765;DHT22;31474;45.332;10.230;2023-11-21T13:40:39;13.80;99.90
45765;DHT22;31474;45.332;10.230;2023-11-21T13:43:16;13.80;99.90
45765;DHT22;31474;45.332;10.230;2023-11-21T13:45:43;13.80;99.90
45765;DHT22;31474;45.332;10.230;2023-11-21T13:48:10;13.80;99.90
45765;DHT22;31474;45.332;10.230;2023-11-21T13:50:39;13.80;99.90
45765;DHT22;31474;45.332;10.230;2023-11-21T13:53:10;13.70;99.90
45765;DHT22;31474;45.332;10.230;2023-11-21T13:55:46;13.70;99.90
45765;DHT22;31474;45.332;10.230;2023-11-21T13:58:13;13.70;99.90
45765;DHT22;31474;45.332;10.230;2023-11-21T14:00:44;13.60;99.90
45765;DHT22;31474;45.332;10.230;2023-11-21T14:03:18;13.60;99.90
45765;DHT22;31474;45.332;10.230;2023-11-21T14:05:48;13.70;99.90
45765;DHT22;31474;45.332;10.230;2023-11-21T14:08:22;13.70;99.90
45765;DHT22;31474;45.332;10.230;2023-11-21T14:10:57;13.70;99.90
45765;DHT22;31474;45.332;10.230;2023-11-21T14:13:27;13.70;99.90
45765;DHT22;31474;45.332;10.230;2023-11-21T14:15:53;13.70;99.90
45765;DHT22;31474;45.332;10.230;2023-11-21T14:18:28;13.70;99.90
45765;DHT22;31474;45.332;10.230;2023-11-21T14:20:59;13.70;99.90
45765;DHT22;31474;45.332;10.230;2023-11-21T14:23:25;13.70;99.90
45765;DHT22;31474;45.332;10.230;2023-11-21T14:25:51;13.70;99.90
45765;DHT22;31474;45.332;10.230;2023-11-21T14:28:17;13.70;99.90
45765;DHT22;31474;45.332;10.230;2023-11-21T14:30:45;13.70;99.90
45765;DHT22;31474;45.332;10.230;2023-11-21T14:33:12;13.70;99.90
45765;DHT22;31474;45.332;10.230;2023-11-21T14:35:37;13.60;99.90
45765;DHT22;31474;45.332;10.230;2023-11-21T14:38:03;13.60;99.90
45765;DHT22;31474;45.332;10.230;2023-11-21T14:40:33;13.60;99.90
45765;DHT22;31474;45.332;10.230;2023-11-21T14:43:03;13.60;99.90
45765;DHT22;31474;45.332;10.230;2023-11-21T14:45:32;13.60;99.90
45765;DHT22;31474;45.332;10.230;2023-11-21T14:47:59;13.50;99.90
45765;DHT22;31474;45.332;10.230;2023-11-21T14:50:32;13.50;99.90
45765;DHT22;31474;45.332;10.230;2023-11-21T14:53:03;13.50;99.90
45765;DHT22;31474;45.332;10.230;2023-11-21T14:55:32;13.50;99.90
45765;DHT22;31474;45.332;10.230;2023-11-21T14:58:04;13.40;99.90
45765;DHT22;31474;45.332;10.230;2023-11-21T15:00:31;13.40;99.90
45765;DHT22;31474;45.332;10.230;2023-11-21T15:03:00;13.40;99.90
45765;DHT22;31474;45.332;10.230;2023-11-21T15:05:26;13.30;99.90
45765;DHT22;31474;45.332;10.230;2023-11-21T15:07:53;13.30;99.90
45765;DHT22;31474;45.332;10.230;2023-11-21T15:10:22;13.30;99.90
45765;DHT22;31474;45.332;10.230;2023-11-21T15:13:05;13.20;99.90
45765;DHT22;31474;45.332;10.230;2023-11-21T15:15:30;13.10;99.90
45765;DHT22;31474;45.332;10.230;2023-11-21T15:17:59;13.10;99.90
45765;DHT22;31474;45.332;10.230;2023-11-21T15:20:25;13.00;99.90
45765;DHT22;31474;45.332;10.230;2023-11-21T15:22:52;13.00;99.90
45765;DHT22;31474;45.332;10.230;2023-11-21T15:25:17;12.90;99.90
45765;DHT22;31474;45.332;10.230;2023-11-21T15:27:43;12.90;99.90
45765;DHT22;31474;45.332;10.230;2023-11-21T15:30:09;12.80;99.90
45765;DHT22;31474;45.332;10.230;2023-11-21T15:32:35;12.80;99.90
45765;DHT22;31474;45.332;10.230;2023-11-21T15:35:00;12.70;99.90
45765;DHT22;31474;45.332;10.230;2023-11-21T15:37:26;12.70;99.90